Time;durP1;ratioP1;P1;durP2;ratioP2;P2;SDS_P1;SDS_P2;PMS_P1;PMS_P2;Temp;Humidity;BMP_temperature;BMP_pressure;BME280_temperature;BME280_humidity;BME280_pressure;Samples;Min_cycle;Max_cycle;Signal;HPM_P1;HPM_P2
2022/04/16 00:01:04;;;;;;;17.75;5.70;;;;;;;11.55;56.60;99176.91;5005511;28;20037;-88
2022/04/16 00:03:29;;;;;;;14.63;6.03;;;;;;;11.57;56.42;99180.13;5022223;28;20031;-88
2022/04/16 00:05:56;;;;;;;11.82;5.70;;;;;;;11.41;56.67;99177.53;5005551;28;20025;-88
2022/04/16 00:08:25;;;;;;;13.32;6.43;;;;;;;11.29;57.05;99174.38;5038073;28;20021;-91
2022/04/16 00:10:50;;;;;;;48.78;8.25;;;;;;;11.24;56.81;99171.69;5006351;28;20028;-91
2022/04/16 00:13:18;;;;;;;9.60;6.38;;;;;;;11.24;57.18;99185.97;5005883;28;20486;-91
2022/04/16 00:15:44;;;;;;;12.02;6.40;;;;;;;11.17;56.76;99172.00;5005949;28;20088;-92
2022/04/16 00:18:10;;;;;;;14.07;6.60;;;;;;;11.26;56.82;99177.63;5005028;28;20028;-91
2022/04/16 00:20:36;;;;;;;15.25;7.00;;;;;;;11.00;57.41;99172.34;5005968;28;20029;-91
2022/04/16 00:23:01;;;;;;;9.98;6.50;;;;;;;10.97;57.42;99164.81;5005725;28;20028;-91
2022/04/16 00:25:28;;;;;;;12.48;6.43;;;;;;;11.00;58.13;99183.13;5005808;28;20080;-92
2022/04/16 00:27:55;;;;;;;18.35;6.97;;;;;;;10.89;58.22;99168.91;5006269;28;20021;-91
2022/04/16 00:30:20;;;;;;;14.65;6.72;;;;;;;10.86;58.16;99168.63;5005904;28;20025;-91
2022/04/16 00:32:51;;;;;;;13.20;6.50;;;;;;;10.81;58.61;99187.50;5005391;28;20085;-91
2022/04/16 00:35:18;;;;;;;11.48;6.38;;;;;;;10.79;58.79;99187.78;5007347;28;20100;-91
2022/04/16 00:37:44;;;;;;;15.73;6.80;;;;;;;10.74;59.10;99184.31;5006503;28;20025;-91
2022/04/16 00:40:10;;;;;;;16.02;7.07;;;;;;;10.64;59.38;99168.97;5021964;28;20021;-92
2022/04/16 00:42:39;;;;;;;13.20;6.50;;;;;;;10.72;58.88;99179.19;5006173;28;20032;-91
2022/04/16 00:45:06;;;;;;;13.50;7.07;;;;;;;10.68;58.58;99188.88;5005679;28;20104;-91
2022/04/16 00:47:32;;;;;;;12.55;6.70;;;;;;;10.61;58.96;99178.41;5022781;28;20013;-92
2022/04/16 00:49:57;;;;;;;13.93;6.90;;;;;;;10.65;59.00;99178.69;5021204;28;20076;-91
2022/04/16 00:52:23;;;;;;;13.13;7.05;;;;;;;10.58;59.37;99178.13;5005516;28;20033;-92
2022/04/16 00:54:49;;;;;;;11.77;6.28;;;;;;;10.55;59.37;99186.78;5005227;28;20399;-92
2022/04/16 00:57:15;;;;;;;11.30;7.25;;;;;;;10.41;59.67;99183.84;5005302;28;20085;-91
2022/04/16 00:59:40;;;;;;;11.55;7.43;;;;;;;10.32;60.37;99192.47;5004440;28;20127;-91
2022/04/16 01:02:08;;;;;;;17.55;9.88;;;;;;;10.22;60.44;99191.63;5004315;28;20025;-91
2022/04/16 01:04:33;;;;;;;22.63;10.05;;;;;;;10.16;60.64;99190.03;5005961;28;20025;-91
2022/04/16 01:06:59;;;;;;;18.83;9.82;;;;;;;10.16;60.50;99187.34;5005069;28;20032;-91
2022/04/16 01:09:24;;;;;;;19.67;9.90;;;;;;;10.05;61.01;99178.47;5005366;28;20029;-91
2022/04/16 01:11:50;;;;;;;22.40;8.88;;;;;;;10.01;61.07;99188.94;5003847;28;20487;-91
2022/04/16 01:14:18;;;;;;;19.92;10.88;;;;;;;10.03;61.18;99189.47;5005273;28;20029;-91
2022/04/16 01:16:44;;;;;;;26.67;10.48;;;;;;;10.06;61.11;99193.50;5005940;28;20021;-92
2022/04/16 01:19:10;;;;;;;21.77;10.63;;;;;;;9.89;61.39;99183.03;5005178;28;20044;-92
2022/04/16 01:21:36;;;;;;;17.40;10.48;;;;;;;9.84;61.60;99165.00;5003961;28;20031;-91
2022/04/16 01:24:02;;;;;;;16.27;10.23;;;;;;;9.88;61.14;99173.34;5005012;28;20024;-91
2022/04/16 01:26:29;;;;;;;20.27;11.68;;;;;;;9.81;61.45;99170.13;5004657;28;20094;-88
2022/04/16 01:28:54;;;;;;;22.88;11.05;;;;;;;9.73;61.98;99176.81;5021053;28;20048;-88
2022/04/16 01:31:20;;;;;;;23.70;12.60;;;;;;;9.72;61.85;99169.84;5019802;28;20033;-88
2022/04/16 01:33:45;;;;;;;23.77;12.48;;;;;;;9.70;62.07;99163.94;5020835;28;20039;-88
2022/04/16 01:36:12;;;;;;;23.92;13.35;;;;;;;9.64;62.06;99170.38;5037492;28;20429;-88
2022/04/16 01:38:37;;;;;;;29.23;14.48;;;;;;;9.62;61.85;99156.38;5037503;28;20029;-88
2022/04/16 01:41:03;;;;;;;23.05;14.45;;;;;;;9.67;62.03;99169.81;5038405;28;20112;-88
2022/04/16 01:43:29;;;;;;;23.50;15.15;;;;;;;9.60;62.16;99158.53;5024853;28;20399;-88
2022/04/16 01:45:55;;;;;;;27.70;15.20;;;;;;;9.69;61.83;99167.69;5025339;28;20063;-88
2022/04/16 01:48:22;;;;;;;24.95;14.82;;;;;;;9.76;62.10;99170.13;5024225;28;20025;-88
2022/04/16 01:50:48;;;;;;;22.25;14.75;;;;;;;9.76;62.05;99162.06;5023992;28;20466;-88
2022/04/16 01:53:14;;;;;;;21.55;14.30;;;;;;;9.76;61.71;99165.53;5023783;28;20056;-88
2022/04/16 01:55:40;;;;;;;30.58;15.23;;;;;;;9.78;61.60;99160.72;5023872;28;20486;-88
2022/04/16 01:58:06;;;;;;;19.98;13.13;;;;;;;9.76;61.38;99159.38;5007163;28;20406;-88
2022/04/16 02:00:33;;;;;;;22.35;12.70;;;;;;;9.73;61.70;99157.19;5007931;28;20032;-88
2022/04/16 02:02:59;;;;;;;20.63;13.23;;;;;;;9.66;62.06;99160.97;5006455;28;20417;-88
2022/04/16 02:05:25;;;;;;;22.38;12.60;;;;;;;9.64;62.11;99162.31;5007804;28;20152;-88
2022/04/16 02:07:50;;;;;;;21.45;12.35;;;;;;;9.60;62.24;99166.59;5007498;28;20100;-88
2022/04/16 02:10:16;;;;;;;24.13;13.27;;;;;;;9.64;62.16;99173.06;5040109;28;20028;-88
2022/04/16 02:12:42;;;;;;;21.52;12.52;;;;;;;9.62;61.79;99181.38;5022588;28;20036;-88
2022/04/16 02:15:08;;;;;;;22.27;11.18;;;;;;;9.55;62.36;99172.78;5006671;28;20036;-88
2022/04/16 02:17:34;;;;;;;17.15;9.88;;;;;;;9.46;62.30;99166.31;5024129;28;20020;-88
2022/04/16 02:19:59;;;;;;;17.75;10.52;;;;;;;9.48;62.42;99169.53;5022900;28;20513;-88
2022/04/16 02:22:25;;;;;;;19.48;11.52;;;;;;;9.43;62.37;99170.34;5023172;28;20021;-89
2022/04/16 02:24:51;;;;;;;24.08;11.48;;;;;;;9.38;62.32;99169.50;5007524;28;20445;-87
2022/04/16 02:27:17;;;;;;;14.75;10.20;;;;;;;9.30;62.64;99166.28;5040682;28;20024;-87
2022/04/16 02:29:42;;;;;;;23.27;11.85;;;;;;;9.27;62.68;99163.31;5023775;28;20384;-87
2022/04/16 02:32:08;;;;;;;18.17;11.40;;;;;;;9.09;63.06;99160.03;5022988;28;20025;-87
2022/04/16 02:34:33;;;;;;;24.70;11.25;;;;;;;9.14;63.30;99166.50;5023914;28;20024;-87
2022/04/16 02:36:59;;;;;;;23.33;10.85;;;;;;;9.00;63.29;99160.81;5040148;28;20147;-86
2022/04/16 02:39:25;;;;;;;20.95;11.70;;;;;;;9.02;63.28;99147.94;5039486;28;20094;-87
2022/04/16 02:41:51;;;;;;;22.42;12.30;;;;;;;9.05;63.49;99166.22;5022645;28;20029;-87
2022/04/16 02:47:06;;;;;;;20.00;11.63;;;;;;;9.14;63.15;99155.75;5057705;28;20035;-87
2022/04/16 02:49:33;;;;;;;23.23;12.15;;;;;;;9.04;63.44;99160.00;5024523;28;20013;-87
2022/04/16 02:51:59;;;;;;;18.90;11.73;;;;;;;8.99;64.14;99172.63;5006282;28;20037;-87
2022/04/16 02:54:25;;;;;;;18.98;11.70;;;;;;;8.94;63.51;99168.03;5022763;28;20094;-87
2022/04/16 02:56:52;;;;;;;32.42;13.35;;;;;;;8.97;63.92;99180.94;5006157;28;20057;-87
2022/04/16 02:59:17;;;;;;;19.27;11.43;;;;;;;8.94;63.63;99172.59;5022028;28;20073;-87
2022/04/16 03:01:43;;;;;;;21.77;10.27;;;;;;;8.95;63.74;99180.41;5023165;28;20082;-88
2022/04/16 03:04:09;;;;;;;15.07;9.70;;;;;;;8.83;63.72;99174.44;5039479;28;20020;-87
2022/04/16 03:06:34;;;;;;;16.58;10.50;;;;;;;8.71;64.23;99171.97;5055848;28;20028;-87
2022/04/16 03:09:01;;;;;;;20.55;10.57;;;;;;;8.59;64.75;99190.16;5006279;28;20116;-87
2022/04/16 03:11:26;;;;;;;19.45;10.95;;;;;;;8.62;64.74;99195.81;5006603;28;20020;-89
2022/04/16 03:13:52;;;;;;;19.85;10.73;;;;;;;8.43;64.98;99182.00;5022707;28;20032;-86
2022/04/16 03:19:01;;;;;;;21.67;11.38;;;;;;;8.33;65.35;99197.22;5040935;28;20120;-87
2022/04/16 03:21:26;;;;;;;18.58;12.10;;;;;;;8.21;65.84;99195.50;5006210;28;20029;-87
2022/04/16 03:23:52;;;;;;;21.65;11.30;;;;;;;8.30;65.41;99199.34;5006730;28;20088;-87
2022/04/16 03:26:17;;;;;;;26.50;11.77;;;;;;;8.28;65.09;99190.75;5039324;28;20020;-87
2022/04/16 03:28:43;;;;;;;14.15;10.73;;;;;;;8.32;65.43;99200.94;5021804;28;20021;-87
2022/04/16 03:31:08;;;;;;;21.75;11.70;;;;;;;8.29;65.82;99204.97;5038870;28;20028;-87
2022/04/16 03:33:34;;;;;;;20.80;11.52;;;;;;;8.29;65.57;99203.06;5005854;28;20024;-87
2022/04/16 03:35:59;;;;;;;22.63;11.30;;;;;;;8.22;65.83;99204.38;5038758;28;20025;-87
2022/04/16 03:38:25;;;;;;;25.25;11.20;;;;;;;8.23;65.76;99200.63;5055874;28;20024;-87
2022/04/16 03:40:50;;;;;;;26.15;12.05;;;;;;;8.27;65.88;99205.22;5022154;28;20029;-87
2022/04/16 03:43:18;;;;;;;23.67;11.48;;;;;;;8.37;65.29;99209.03;5038440;28;20087;-88
2022/04/16 03:45:43;;;;;;;20.13;12.13;;;;;;;8.43;64.80;99208.84;5005830;28;20033;-86
2022/04/16 03:48:09;;;;;;;20.25;11.00;;;;;;;8.36;64.93;99208.22;5037389;28;20097;-86
2022/04/16 03:50:35;;;;;;;21.77;11.30;;;;;;;8.35;65.04;99217.34;5039476;28;20033;-87
2022/04/16 03:53:00;;;;;;;19.42;10.52;;;;;;;8.23;65.70;99222.88;5038757;28;20496;-87
2022/04/16 04:00:56;;;;;;;22.80;10.93;;;;;;;8.19;65.70;99232.50;5041616;28;20094;-87
2022/04/16 04:03:22;;;;;;;21.08;11.20;;;;;;;8.16;65.35;99233.03;5019786;28;20029;-87
2022/04/16 04:05:53;;;;;;;24.55;12.30;;;;;;;8.10;66.24;99240.22;5004799;28;20028;-87
2022/04/16 04:08:18;;;;;;;17.40;10.65;;;;;;;8.09;65.78;99243.13;5006439;28;20437;-87
2022/04/16 04:10:45;;;;;;;21.35;11.38;;;;;;;8.05;65.93;99242.88;5021564;28;20050;-89
2022/04/16 04:13:11;;;;;;;26.42;10.85;;;;;;;7.98;65.95;99230.72;5021378;28;20028;-86
2022/04/16 04:15:36;;;;;;;24.70;11.90;;;;;;;8.16;66.12;99261.72;5005876;28;20478;-87
2022/04/16 04:18:02;;;;;;;30.75;11.93;;;;;;;8.19;66.19;99258.53;5038625;28;20025;-87
2022/04/16 04:20:28;;;;;;;18.27;10.10;;;;;;;8.24;65.55;99258.56;5005803;28;20058;-87
2022/04/16 04:22:53;;;;;;;23.15;10.52;;;;;;;8.23;65.93;99255.06;5021402;28;20021;-85
2022/04/16 04:25:19;;;;;;;29.33;11.10;;;;;;;8.28;65.49;99262.38;5020821;28;20031;-87
2022/04/16 04:27:44;;;;;;;20.35;11.50;;;;;;;8.36;65.44;99266.44;5021395;28;20099;-87
2022/04/16 04:30:10;;;;;;;19.67;11.07;;;;;;;8.48;65.66;99275.94;5005186;28;20121;-87
2022/04/16 04:32:36;;;;;;;20.85;11.57;;;;;;;8.46;65.25;99266.53;5021764;28;20028;-87
2022/04/16 04:35:02;;;;;;;33.45;11.63;;;;;;;8.50;65.25;99281.06;5004473;28;20021;-87
2022/04/16 04:37:28;;;;;;;24.25;11.10;;;;;;;8.55;64.70;99274.91;5005057;28;20116;-86
2022/04/16 04:39:54;;;;;;;22.35;10.45;;;;;;;8.58;64.31;99261.00;5020945;28;20102;-87
2022/04/16 04:42:27;;;;;;;19.02;11.20;;;;;;;8.56;64.46;99266.63;5021857;28;20040;-87
2022/04/16 04:44:53;;;;;;;27.05;11.40;;;;;;;8.62;64.20;99262.09;5003855;28;20048;-86
2022/04/16 04:47:19;;;;;;;26.17;13.57;;;;;;;8.86;63.55;99267.88;5021019;28;20040;-89
2022/04/16 04:49:44;;;;;;;26.50;12.63;;;;;;;9.15;62.58;99271.00;5037500;28;20021;-88
2022/04/16 04:52:10;;;;;;;29.80;12.57;;;;;;;9.16;62.68;99253.00;5021816;28;20017;-88
2022/04/16 04:54:35;;;;;;;52.13;13.50;;;;;;;9.35;63.06;99274.84;5003685;28;20033;-87
2022/04/16 04:57:03;;;;;;;24.17;12.20;;;;;;;9.37;62.59;99260.06;5005023;28;20036;-87
2022/04/16 04:59:28;;;;;;;20.23;11.93;;;;;;;9.46;61.36;99258.50;5021148;28;20493;-87
2022/04/16 05:01:54;;;;;;;22.90;13.10;;;;;;;9.49;62.07;99268.72;5037756;28;20036;-88
2022/04/16 05:04:19;;;;;;;19.75;12.88;;;;;;;9.56;61.73;99275.72;5004313;28;20029;-86
2022/04/16 05:06:45;;;;;;;32.25;14.93;;;;;;;9.60;61.70;99272.25;5020306;28;20036;-87
2022/04/16 05:09:11;;;;;;;25.42;14.30;;;;;;;9.74;62.13;99287.88;5004202;28;20095;-87
2022/04/16 05:11:36;;;;;;;28.60;14.05;;;;;;;9.81;61.28;99277.66;5021185;28;20036;-87
2022/04/16 05:14:02;;;;;;;22.63;13.73;;;;;;;9.87;60.82;99269.34;5037748;28;20445;-85
2022/04/16 05:16:27;;;;;;;20.50;11.90;;;;;;;10.04;59.73;99268.28;5007720;28;20052;-87
2022/04/16 05:18:53;;;;;;;24.73;12.18;;;;;;;10.22;58.83;99269.66;5024815;28;20025;-91
2022/04/16 05:21:19;;;;;;;31.50;11.95;;;;;;;10.27;58.71;99280.41;5026285;28;20029;-92
2022/04/16 05:23:45;;;;;;;59.95;12.85;;;;;;;10.38;58.07;99287.47;5026759;28;20025;-93
2022/04/16 05:26:10;;;;;;;49.70;13.13;;;;;;;10.46;58.75;99288.81;5024866;28;20082;-92
2022/04/16 05:28:37;;;;;;;18.38;11.20;;;;;;;10.54;57.33;99292.84;5009066;28;20490;-92
2022/04/16 05:31:03;;;;;;;21.02;10.73;;;;;;;10.69;56.86;99298.22;5009324;28;20037;-92
2022/04/16 05:36:12;;;;;;;23.33;10.70;;;;;;;10.88;56.84;99290.38;5030818;28;20031;-92
2022/04/16 05:38:38;;;;;;;32.35;11.20;;;;;;;11.03;56.08;99297.63;5007649;28;20120;-89
2022/04/16 05:41:04;;;;;;;22.52;10.55;;;;;;;11.11;55.74;99286.28;5041144;28;20025;-92
2022/04/16 05:43:29;;;;;;;23.35;11.90;;;;;;;11.16;55.57;99288.94;5010023;28;20029;-92
2022/04/16 05:45:55;;;;;;;21.45;10.90;;;;;;;11.29;55.16;99279.50;5009585;28;20060;-91
2022/04/16 05:48:20;;;;;;;18.27;9.63;;;;;;;11.42;54.87;99286.19;5009388;28;20025;-92
2022/04/16 05:50:46;;;;;;;14.32;9.32;;;;;;;11.63;53.78;99285.00;5008993;28;20024;-92
2022/04/16 05:53:12;;;;;;;13.75;8.25;;;;;;;11.60;54.28;99268.56;5009676;28;20049;-91
2022/04/16 05:55:41;;;;;;;20.67;7.53;;;;;;;11.65;53.28;99269.34;5009361;28;20028;-92
2022/04/16 05:58:07;;;;;;;14.85;8.70;;;;;;;11.73;53.18;99257.19;5007887;28;20501;-92
2022/04/16 06:00:33;;;;;;;13.48;8.80;;;;;;;11.87;53.12;99268.13;5024789;28;20029;-91
2022/04/16 06:02:59;;;;;;;22.20;8.82;;;;;;;12.00;53.01;99255.97;5008688;28;20491;-91
2022/04/16 06:05:24;;;;;;;19.10;9.15;;;;;;;12.11;53.05;99274.47;5025298;28;20039;-91
2022/04/16 06:07:50;;;;;;;19.10;8.73;;;;;;;12.17;53.07;99259.06;5024213;28;20411;-91
2022/04/16 06:10:15;;;;;;;19.80;9.20;;;;;;;12.30;52.78;99266.50;5024588;28;20041;-90
2022/04/16 06:12:41;;;;;;;32.70;8.93;;;;;;;12.44;51.79;99268.56;5008221;28;20033;-90
2022/04/16 06:15:07;;;;;;;57.33;9.65;;;;;;;12.76;50.89;99272.59;5008623;28;20039;-91
2022/04/16 06:17:36;;;;;;;23.27;9.43;;;;;;;12.91;50.15;99275.16;5007945;28;20025;-92
2022/04/16 06:20:04;;;;;;;15.00;8.77;;;;;;;13.14;49.81;99265.44;5008096;28;20475;-91
2022/04/16 06:22:29;;;;;;;27.70;10.38;;;;;;;13.27;50.39;99270.16;5008313;28;20029;-91
2022/04/16 06:24:55;;;;;;;34.30;9.82;;;;;;;13.47;49.37;99268.34;5025558;28;20033;-91
2022/04/16 06:27:20;;;;;;;24.35;9.18;;;;;;;13.64;49.01;99268.63;5007640;28;20024;-91
2022/04/16 06:29:47;;;;;;;20.73;9.27;;;;;;;13.92;48.64;99271.50;5007243;28;20139;-91
2022/04/16 06:32:13;;;;;;;59.75;11.20;;;;;;;14.20;48.21;99277.06;5008859;28;20078;-91
2022/04/16 06:34:41;;;;;;;19.63;8.50;;;;;;;14.31;46.84;99263.03;5008295;28;20032;-92
2022/04/16 06:37:07;;;;;;;12.93;9.05;;;;;;;14.55;46.17;99268.38;5023459;28;20033;-89
2022/04/16 06:39:33;;;;;;;12.68;7.80;;;;;;;14.70;44.92;99258.38;5039313;28;20411;-87
2022/04/16 06:41:58;;;;;;;17.00;6.53;;;;;;;14.85;44.38;99260.00;5023781;28;20032;-90
2022/04/16 06:44:25;;;;;;;12.30;7.22;;;;;;;15.04;44.56;99271.53;5007160;28;20036;-89
2022/04/16 06:46:52;;;;;;;15.70;9.60;;;;;;;15.21;44.06;99262.00;5022121;28;20061;-88
2022/04/16 06:49:17;;;;;;;11.48;7.18;;;;;;;15.31;43.66;99257.19;5039343;28;20479;-87
2022/04/16 06:51:43;;;;;;;13.07;7.15;;;;;;;15.57;43.28;99262.09;5039891;28;20024;-92
2022/04/16 06:54:09;;;;;;;17.05;8.55;;;;;;;15.65;43.42;99269.50;5006665;28;20434;-90
2022/04/16 06:56:34;;;;;;;34.60;8.02;;;;;;;15.82;43.17;99263.47;5022413;28;20024;-88
2022/04/16 06:59:00;;;;;;;12.88;7.68;;;;;;;15.99;42.21;99268.25;5005499;28;20041;-88
2022/04/16 07:01:25;;;;;;;14.85;7.85;;;;;;;16.15;41.93;99253.19;5006522;28;20526;-89
2022/04/16 07:03:51;;;;;;;24.15;7.20;;;;;;;16.30;40.87;99262.88;5040595;28;20020;-91
2022/04/16 07:06:17;;;;;;;14.35;6.53;;;;;;;16.43;41.80;99257.69;5025814;28;20028;-90
2022/04/16 07:08:42;;;;;;;18.50;7.63;;;;;;;16.59;40.92;99269.00;5024612;28;20021;-91
2022/04/16 07:11:08;;;;;;;16.10;7.80;;;;;;;16.80;40.29;99263.81;5009423;28;20024;-92
2022/04/16 07:13:33;;;;;;;26.83;8.25;;;;;;;17.00;40.23;99252.44;5028526;28;20033;-91
2022/04/16 07:15:59;;;;;;;24.13;8.70;;;;;;;17.17;38.81;99260.66;5009749;28;20021;-92
2022/04/16 07:18:25;;;;;;;16.55;7.68;;;;;;;17.28;39.71;99249.47;5040130;28;20079;-92
2022/04/16 07:20:51;;;;;;;22.73;8.25;;;;;;;17.52;38.96;99247.13;5023663;28;20048;-94
2022/04/16 07:23:16;;;;;;;12.27;6.65;;;;;;;17.71;37.21;99255.00;5007160;28;20495;-92
2022/04/16 07:25:42;;;;;;;11.75;4.57;;;;;;;17.94;34.73;99244.00;5023267;28;20037;-92
2022/04/16 07:28:07;;;;;;;12.73;5.75;;;;;;;18.19;35.14;99245.09;5005850;28;20039;-93
2022/04/16 07:30:33;;;;;;;7.30;3.78;;;;;;;18.32;34.32;99241.41;5040483;28;20069;-93
2022/04/16 07:32:59;;;;;;;6.88;4.05;;;;;;;18.47;31.59;99229.19;5022758;28;20024;-91
2022/04/16 07:35:26;;;;;;;12.00;4.75;;;;;;;18.68;33.16;99239.41;5040745;28;20025;-91
2022/04/16 07:37:56;;;;;;;18.75;5.25;;;;;;;18.77;33.80;99232.78;5005087;28;20470;-91
2022/04/16 07:40:24;;;;;;;11.32;4.10;;;;;;;18.91;31.58;99242.72;5009592;28;20053;-93
2022/04/16 07:42:50;;;;;;;11.32;3.63;;;;;;;19.01;30.69;99234.19;5022862;28;20464;-92
2022/04/16 07:45:15;;;;;;;7.85;3.35;;;;;;;19.04;29.92;99225.31;5022303;28;20021;-91
2022/04/16 07:47:41;;;;;;;7.72;3.60;;;;;;;19.17;29.64;99229.75;5023168;28;20620;-92
2022/04/16 07:50:07;;;;;;;6.13;3.83;;;;;;;19.25;29.71;99230.81;5006472;28;20020;-91
2022/04/16 07:52:32;;;;;;;5.10;2.88;;;;;;;19.37;30.22;99228.19;5023271;28;20087;-91
2022/04/16 07:54:58;;;;;;;12.02;4.13;;;;;;;19.51;30.66;99233.41;5006123;28;20029;-94
2022/04/16 07:57:23;;;;;;;13.45;4.65;;;;;;;19.59;31.01;99232.56;5006133;28;20020;-91
2022/04/16 07:59:49;;;;;;;6.78;3.25;;;;;;;19.68;30.39;99224.28;5005409;28;20052;-92
2022/04/16 08:02:14;;;;;;;6.68;3.35;;;;;;;19.81;30.81;99236.09;5006221;28;20078;-93
2022/04/16 08:04:41;;;;;;;16.90;4.07;;;;;;;19.82;31.62;99234.16;5022492;28;20025;-93
2022/04/16 08:07:06;;;;;;;7.63;3.65;;;;;;;19.85;31.24;99231.56;5023575;28;20021;-92
2022/04/16 08:09:32;;;;;;;7.82;3.35;;;;;;;19.78;31.38;99228.59;5004691;28;20113;-92
2022/04/16 08:11:58;;;;;;;9.00;3.42;;;;;;;19.94;31.11;99228.78;5005973;28;20028;-91
2022/04/16 08:14:25;;;;;;;8.80;3.85;;;;;;;19.90;31.38;99228.66;5006136;28;20021;-92
2022/04/16 08:16:50;;;;;;;11.05;4.00;;;;;;;20.06;31.30;99228.03;5040000;28;20043;-92
2022/04/16 08:19:16;;;;;;;7.05;3.60;;;;;;;20.04;31.00;99220.16;5004481;28;20068;-92
2022/04/16 08:21:42;;;;;;;11.68;3.47;;;;;;;20.09;31.36;99217.22;5022006;28;20502;-91
2022/04/16 08:24:22;;;;;;;7.45;4.00;;;;;;;20.10;31.72;99216.09;5022421;28;20021;-91
2022/04/16 08:26:48;;;;;;;8.82;3.88;;;;;;;20.07;32.05;99224.97;5010015;28;20017;-92
2022/04/16 08:29:13;;;;;;;9.20;4.93;;;;;;;20.15;32.14;99224.09;5006072;28;20105;-91
2022/04/16 08:31:39;;;;;;;9.52;3.30;;;;;;;20.10;30.42;99209.81;5005282;28;20028;-91
2022/04/16 08:34:04;;;;;;;7.53;3.80;;;;;;;20.06;29.45;99228.81;5005647;28;20539;-92
2022/04/16 08:36:30;;;;;;;11.30;4.00;;;;;;;19.96;29.59;99237.44;5005492;28;20025;-91
2022/04/16 08:38:55;;;;;;;6.95;3.40;;;;;;;19.99;29.35;99228.56;5005447;28;20029;-91
2022/04/16 08:41:21;;;;;;;8.43;3.60;;;;;;;20.03;29.26;99240.44;5004498;28;20025;-91
2022/04/16 08:43:46;;;;;;;6.55;3.45;;;;;;;19.96;29.63;99226.50;5005635;28;20021;-92
2022/04/16 08:46:12;;;;;;;10.70;3.40;;;;;;;20.00;30.70;99243.84;5005120;28;20024;-92
2022/04/16 08:48:37;;;;;;;9.80;3.65;;;;;;;20.11;29.88;99250.50;5021220;28;20087;-92
2022/04/16 08:51:03;;;;;;;11.18;3.75;;;;;;;20.15;28.48;99234.22;5003925;28;20391;-91
2022/04/16 08:53:28;;;;;;;7.40;4.38;;;;;;;20.06;27.21;99230.75;5005320;28;20024;-92
2022/04/16 08:55:54;;;;;;;6.78;3.63;;;;;;;20.06;27.36;99215.16;5023170;28;20017;-93
2022/04/16 08:58:19;;;;;;;7.07;3.88;;;;;;;20.19;27.58;99225.03;5022582;28;20123;-92
2022/04/16 09:00:47;;;;;;;13.00;4.15;;;;;;;20.17;26.91;99215.53;5003907;28;20049;-92
2022/04/16 09:03:12;;;;;;;14.90;4.15;;;;;;;20.28;27.56;99218.66;5021741;28;20351;-92
2022/04/16 09:05:38;;;;;;;7.60;3.50;;;;;;;20.19;27.53;99232.41;5004973;28;20116;-92
2022/04/16 09:08:04;;;;;;;7.20;3.78;;;;;;;20.26;28.23;99232.66;5005545;28;20024;-92
2022/04/16 09:10:30;;;;;;;12.27;3.63;;;;;;;20.28;27.49;99215.94;5020390;28;20029;-92
2022/04/16 09:13:00;;;;;;;9.02;3.58;;;;;;;20.33;27.87;99223.91;5005787;28;20025;-92
2022/04/16 09:15:26;;;;;;;7.45;3.85;;;;;;;20.35;28.41;99216.16;5005837;28;20076;-92
2022/04/16 09:18:05;;;;;;;10.70;4.20;;;;;;;20.37;27.92;99220.16;5038709;28;20028;-91
2022/04/16 09:20:33;;;;;;;7.65;4.47;;;;;;;20.31;27.40;99217.97;5004606;28;20055;-92
2022/04/16 09:22:58;;;;;;;8.48;4.30;;;;;;;20.45;27.98;99226.69;5005845;28;20499;-92
2022/04/16 09:25:28;;;;;;;9.27;4.15;;;;;;;20.52;27.75;99215.19;5006679;28;20029;-92
2022/04/16 09:27:54;;;;;;;11.02;3.88;;;;;;;20.71;27.48;99222.88;5025541;28;20013;-94
2022/04/16 09:30:29;;;;;;;9.63;4.13;;;;;;;20.87;28.17;99221.09;5004733;28;20045;-93
2022/04/16 09:32:59;;;;;;;9.35;4.40;;;;;;;20.93;28.01;99225.19;5021825;28;20087;-93
2022/04/16 09:35:35;;;;;;;17.13;4.40;;;;;;;21.12;27.71;99227.34;5005177;28;20044;-91
2022/04/16 09:38:06;;;;;;;9.68;4.40;;;;;;;21.24;27.54;99223.81;5030742;28;20029;-91
2022/04/16 09:40:34;;;;;;;10.77;5.30;;;;;;;21.16;26.83;99208.31;5024293;28;20028;-92
2022/04/16 09:43:02;;;;;;;10.68;5.43;;;;;;;21.22;26.32;99195.19;5043781;28;20048;-91
2022/04/16 09:45:30;;;;;;;7.50;4.65;;;;;;;21.19;26.69;99181.06;5026712;28;20024;-91
2022/04/16 09:47:57;;;;;;;9.65;4.40;;;;;;;21.16;27.08;99191.88;5027874;28;20415;-92
2022/04/16 09:50:27;;;;;;;6.00;4.00;;;;;;;21.29;27.10;99220.88;5028656;28;20041;-93
2022/04/16 09:52:57;;;;;;;18.25;4.32;;;;;;;20.97;27.36;99181.53;5045268;28;20056;-92
2022/04/16 09:55:26;;;;;;;6.57;3.70;;;;;;;21.16;27.55;99209.09;5022069;28;20025;-92
2022/04/16 09:58:06;;;;;;;9.82;4.10;;;;;;;21.27;27.80;99203.16;5004659;28;20028;-93
2022/04/16 10:00:33;;;;;;;7.88;3.47;;;;;;;21.32;27.98;99198.25;5021899;28;20106;-90
2022/04/16 10:03:00;;;;;;;8.10;2.80;;;;;;;21.21;28.36;99194.41;5006878;28;20037;-89
2022/04/16 10:05:25;;;;;;;7.22;2.72;;;;;;;21.11;28.52;99205.81;5022869;28;20025;-88
2022/04/16 10:07:54;;;;;;;7.53;2.90;;;;;;;21.09;29.16;99197.16;5022677;28;20031;-89
2022/04/16 10:10:30;;;;;;;5.72;2.75;;;;;;;21.36;29.03;99204.66;5025048;28;20045;-89
2022/04/16 10:13:04;;;;;;;3.70;2.60;;;;;;;21.46;29.15;99202.59;5026711;28;20033;-88
2022/04/16 10:15:47;;;;;;;7.55;2.55;;;;;;;21.38;29.64;99196.88;5057765;28;20434;-89
2022/04/16 10:18:15;;;;;;;4.60;2.60;;;;;;;21.37;29.63;99202.69;5023040;28;20498;-88
2022/04/16 10:20:53;;;;;;;5.68;2.65;;;;;;;21.41;29.86;99203.59;5023285;28;20091;-90
2022/04/16 10:23:37;;;;;;;4.05;2.70;;;;;;;21.25;30.30;99195.31;5023419;28;20098;-88
2022/04/16 10:29:03;;;;;;;7.07;2.30;;;;;;;21.35;30.32;99221.41;5042178;28;20055;-89
2022/04/16 10:31:33;;;;;;;8.25;2.03;;;;;;;21.46;30.34;99202.59;5006639;28;20037;-88
2022/04/16 10:34:05;;;;;;;3.55;2.10;;;;;;;21.33;30.61;99210.81;5022283;28;20029;-90
2022/04/16 10:36:52;;;;;;;9.30;2.63;;;;;;;21.35;30.76;99185.81;5039172;28;20036;-87
2022/04/16 10:39:19;;;;;;;5.30;2.40;;;;;;;21.40;30.60;99191.06;5042930;28;20376;-88
2022/04/16 10:41:57;;;;;;;8.07;2.30;;;;;;;21.30;30.26;99194.28;5039277;28;20041;-88
2022/04/16 10:44:23;;;;;;;6.93;2.38;;;;;;;21.37;30.85;99195.31;5057484;28;20029;-89
2022/04/16 10:46:50;;;;;;;4.70;2.08;;;;;;;21.43;30.33;99203.28;5023557;28;20028;-87
2022/04/16 10:49:21;;;;;;;3.95;2.00;;;;;;;21.51;30.02;99186.72;5023243;28;20033;-89
2022/04/16 10:51:47;;;;;;;8.60;2.25;;;;;;;21.58;29.95;99194.34;5022724;28;20392;-88
2022/04/16 10:54:49;;;;;;;10.60;2.70;;;;;;;21.64;29.20;99198.44;5039258;28;20111;-88
2022/04/16 10:57:21;;;;;;;;;;;;;;;21.82;28.24;99207.19;5014326;28;20412;-88
2022/04/16 10:59:47;;;;;;;;;;;;;;;21.76;27.89;99195.66;4997349;28;19953;-87
2022/04/16 11:02:30;;;;;;;3.53;1.83;;;;;;;21.61;28.75;99181.91;5014751;28;19909;-87
2022/04/16 11:05:01;;;;;;;8.35;2.00;;;;;;;21.67;28.42;99177.78;4983246;28;20057;-88
2022/04/16 11:07:30;;;;;;;4.03;2.10;;;;;;;21.66;27.90;99185.19;4998667;28;20072;-86
2022/04/16 11:09:58;;;;;;;5.45;2.15;;;;;;;21.88;28.15;99207.75;4981171;28;20034;-87
2022/04/16 11:12:24;;;;;;;6.60;1.98;;;;;;;21.87;28.42;99179.56;5015000;28;20136;-87
2022/04/16 11:14:50;;;;;;;7.65;1.60;;;;;;;21.91;26.95;99177.69;4982972;28;20041;-88
2022/04/16 11:17:16;;;;;;;7.13;2.00;;;;;;;22.08;26.90;99181.25;4999120;28;20092;-90
2022/04/16 11:20:00;;;;;;;6.57;2.10;;;;;;;22.10;26.71;99178.97;4981515;28;20038;-92
2022/04/16 11:22:26;;;;;;;3.22;1.65;;;;;;;21.89;26.89;99162.72;4981082;28;20430;-89
2022/04/16 11:24:51;;;;;;;4.38;1.90;;;;;;;22.15;26.54;99173.25;4965888;28;20034;-90
2022/04/16 11:35:57;;;;;;;8.43;2.08;;;;;;;22.15;26.84;99163.06;5044581;28;20048;-96
2022/04/16 11:38:41;;;;;;;4.43;2.03;;;;;;;22.16;27.25;99166.59;5027094;28;20033;-96
2022/04/16 11:41:27;;;;;;;6.72;2.20;;;;;;;22.06;27.56;99136.94;5011122;28;20033;-95
2022/04/16 11:43:53;;;;;;;136.50;94.55;;;;;;;22.27;27.98;99143.03;5027673;28;20032;-94
2022/04/16 11:46:22;;;;;;;6.00;2.00;;;;;;;22.37;27.78;99122.50;5044784;28;20048;-95
2022/04/16 11:48:48;;;;;;;9.60;2.97;;;;;;;22.49;28.36;99127.09;5060800;28;20481;-96
2022/04/16 11:51:15;;;;;;;6.07;2.33;;;;;;;22.70;28.15;99124.91;5011383;28;20041;-96